Lelystad Airport

EHLE · Flevoland, 荷兰

METAR的历史 EHLE · Lelystad Airport

下面你可以看到过去几天的METARs。 选择年份以浏览从2007年开始的旧METAR。

2024年5月24日

时间 代码 天气 温度 能见度 天花板 METAR/SPECI
14:25
V
19 °C 10 km+ - 140° 140° 3 kt METAR EHLE 241225Z AUTO 14003KT 030V190 9999 -RA NSC 19/13 Q1019 TEMPO FM1240 3000 SHRA TSRA SCT030CB
13:55
V
19 °C 10 km+ - 150° 150° 3 kt METAR EHLE 241155Z AUTO 15003KT 090V220 9999 FEW027CB 19/13 Q1019 TEMPO FM1240 3000 SHRA TSRA SCT030CB
13:25
V
19 °C 10 km+ - 130° 130° 3 kt METAR EHLE 241125Z AUTO 13003KT 070V180 9999 -RA FEW044/// 19/12 Q1019 TEMPO FM1240 3000 SHRA TSRA SCT030CB
12:55
V
19 °C 10 km+ - 090° 090° 4 kt METAR EHLE 241055Z AUTO 09004KT 050V140 9999 NSC 19/12 Q1019 NOSIG
12:25
V
19 °C 10 km+ - 100° 100° 3 kt METAR EHLE 241025Z AUTO 10003KT 070V140 9999 NSC 19/12 Q1019 NOSIG
11:55
V
19 °C 10 km+ - Var Var 2 kt METAR EHLE 240955Z AUTO VRB02KT 9999 NSC 19/12 Q1019 NOSIG
11:25
V
18 °C 10 km+ - Var Var 2 kt METAR EHLE 240925Z AUTO VRB02KT 9999 NSC 18/13 Q1019 NOSIG
10:55
V
17 °C 9 km - 080° 080° 3 kt METAR EHLE 240855Z AUTO 08003KT 050V110 9000 NSC 17/14 Q1019 NOSIG
10:25
V
17 °C 10 km+ - 090° 090° 3 kt METAR EHLE 240825Z AUTO 09003KT 050V140 9999 NSC 17/13 Q1019 NOSIG
09:55
V
17 °C 10 km+ - Var Var 2 kt METAR EHLE 240755Z AUTO VRB02KT 9999 NSC 17/13 Q1019 NOSIG
09:25
V
16 °C 10 km+ - 080° 080° 3 kt METAR EHLE 240725Z AUTO 08003KT 9999 NSC 16/13 Q1018 NOSIG
08:55
V
15 °C 10 km+ - 090° 090° 3 kt METAR EHLE 240655Z AUTO 09003KT 060V130 9999 NSC 15/13 Q1018 NOSIG
08:25
V
14 °C 10 km+ - 110° 110° 3 kt METAR EHLE 240625Z AUTO 11003KT 9999 NSC 14/12 Q1018 NOSIG
07:55
M
14 °C 6 km - 100° 100° 3 kt METAR EHLE 240555Z AUTO 10003KT 080V140 6000 NSC 14/12 Q1018 BECMG CAVOK
07:25
M
13 °C 5 km - 110° 110° 3 kt METAR EHLE 240525Z AUTO 11003KT 5000 BR NSC 13/12 Q1018 BECMG CAVOK
06:55
I
11 °C 2,2 km - 090° 090° 2 kt METAR EHLE 240455Z AUTO 09002KT 2200 BR NSC 11/11 Q1018 BECMG CAVOK
06:25
L
11 °C 550 m - 050° 050° 4 kt METAR EHLE 240425Z AUTO 05004KT 0550 BR NCD 11/10 Q1017
05:55
L
10 °C 300 m - 070° 070° 1 kt METAR EHLE 240355Z AUTO 07001KT 0300 BR NSC 10/10 Q1017
05:25
L
10 °C 350 m - 050° 050° 2 kt METAR EHLE 240325Z AUTO 05002KT 0350 FG NSC 10/09 Q1017
04:55
L
10 °C 350 m - Var Var 2 kt METAR EHLE 240255Z AUTO VRB02KT 0350 BR OVC000 10/10 Q1017
04:25
I
10 °C 2,6 km - 090° 090° 1 kt METAR EHLE 240225Z AUTO 09001KT 2600 BR NSC 10/10 Q1017
03:55
M
11 °C 6 km - Var Var 2 kt METAR EHLE 240155Z AUTO VRB02KT 6000 NSC 11/10 Q1017
03:25
V
11 °C 8 km - 020° 020° 1 kt METAR EHLE 240125Z AUTO 02001KT 8000 NSC 11/10 Q1017
02:55
I
12 °C 4,6 km - Var Var 1 kt METAR EHLE 240055Z AUTO VRB01KT 4600 NSC 12/11 Q1017
02:25
V
11 °C 10 km+ - 360° 360° 0 kt METAR EHLE 240025Z AUTO 00000KT 9999 NSC 11/11 Q1017
01:55
V
12 °C 10 km+ - 110° 110° 1 kt METAR EHLE 232355Z AUTO 11001KT 9999 NSC 12/11 Q1017
01:25
V
12 °C 10 km+ - 100° 100° 1 kt METAR EHLE 232325Z AUTO 10001KT 9999 NSC 12/10 Q1017
00:55
V
13 °C 10 km+ - 120° 120° 2 kt METAR EHLE 232255Z AUTO 12002KT 9999 NCD 13/11 Q1017
00:25
V
13 °C 10 km+ - 130° 130° 3 kt METAR EHLE 232225Z AUTO 13003KT 9999 NSC 13/12 Q1017

2024年5月23日

时间 代码 天气 温度 能见度 天花板 METAR/SPECI
23:55
V
13 °C 10 km+ - 260° 260° 1 kt METAR EHLE 232155Z AUTO 26001KT 9999 NCD 13/11 Q1017
23:25
V
14 °C 10 km+ - 210° 210° 1 kt METAR EHLE 232125Z AUTO 21001KT 9999 NSC 14/11 Q1017
22:55
V
15 °C 10 km+ - 230° 230° 3 kt METAR EHLE 232055Z AUTO 23003KT 9999 NSC 15/11 Q1016
22:25
V
15 °C 10 km+ - 240° 240° 3 kt METAR EHLE 232025Z AUTO 24003KT 210V270 9999 NSC 15/11 Q1016
21:55
V
15 °C 10 km+ - 260° 260° 3 kt METAR EHLE 231955Z AUTO 26003KT 9999 NSC 15/12 Q1016 NOSIG
21:25
V
16 °C 10 km+ - 270° 270° 3 kt METAR EHLE 231925Z AUTO 27003KT 230V300 9999 SCT034 16/11 Q1015 NOSIG
20:55
V
18 °C 10 km+ 3.400 ft Var Var 2 kt METAR EHLE 231855Z AUTO VRB02KT 9999 BKN034 BKN038 18/11 Q1015 NOSIG
20:25
V
18 °C 10 km+ - 290° 290° 4 kt METAR EHLE 231825Z AUTO 29004KT 260V330 9999 FEW037 18/11 Q1015 NOSIG
19:55
V
18 °C 10 km+ - 290° 290° 4 kt METAR EHLE 231755Z AUTO 29004KT 250V330 9999 NCD 18/11 Q1015 NOSIG
19:25
V
19 °C 10 km+ - 280° 280° 7 kt METAR EHLE 231725Z AUTO 28007KT 9999 FEW033/// 19/11 Q1015 NOSIG
18:55
V
19 °C 10 km+ - 270° 270° 8 kt METAR EHLE 231655Z AUTO 27008KT 240V320 9999 NSC 19/11 Q1015 NOSIG
18:25
V
19 °C 10 km+ - 280° 280° 10 kt METAR EHLE 231625Z AUTO 28010KT 250V310 9999 FEW035/// 19/12 Q1015 NOSIG
17:55
V
19 °C 10 km+ - 270° 270° 12 kt METAR EHLE 231555Z AUTO 27012KT 250V320 9999 FEW035 SCT039 19/11 Q1014 NOSIG
17:25
V
19 °C 10 km+ - 270° 270° 11 kt METAR EHLE 231525Z AUTO 27011KT 240V300 9999 SCT033/// 19/12 Q1014 NOSIG
16:55
V
19 °C 10 km+ - 270° 270° 11 kt METAR EHLE 231455Z AUTO 27011KT 230V310 9999 SCT030/// SCT035/// 19/12 Q1014 NOSIG
16:25
V
19 °C 10 km+ 3.600 ft 220° 220° 8 kt METAR EHLE 231425Z AUTO 22008KT 180V250 9999 SCT032/// OVC036/// 19/13 Q1014 NOSIG
15:55
V
19 °C 10 km+ 4.600 ft 210° 210° 11 kt METAR EHLE 231355Z AUTO 21011KT 170V260 9999 FEW034/// SCT039/// BKN046/// 19/12 Q1014 NOSIG
15:25
V
20 °C 10 km+ - 230° 230° 13 kt METAR EHLE 231325Z AUTO 23013KT 190V260 9999 NSC 20/12 Q1014 NOSIG
14:55
V
20 °C 10 km+ - 230° 230° 14 kt METAR EHLE 231255Z AUTO 23014KT 200V270 9999 NSC 20/12 Q1014 NOSIG
14:25
V
18 °C 10 km+ 3.900 ft 220° 220° 10 kt METAR EHLE 231225Z AUTO 22010KT 180V250 9999 FEW026 SCT029 BKN039 18/12 Q1014 NOSIG
13:55
V
18 °C 10 km+ 3.400 ft 230° 230° 12 kt METAR EHLE 231155Z AUTO 23012KT 190V250 9999 FEW024 SCT030 BKN034 18/12 Q1014 NOSIG
13:25
V
17 °C 10 km+ 4.100 ft 200° 200° 13 kt METAR EHLE 231125Z AUTO 20013KT 170V240 9999 SCT022 SCT028 OVC041 17/12 Q1014 NOSIG
12:55
M
16 °C 10 km+ 2.700 ft 220° 220° 12 kt METAR EHLE 231055Z AUTO 22012KT 190V250 9999 SCT019 SCT024 BKN027 16/12 Q1014 NOSIG
12:25
M
17 °C 10 km+ 2.300 ft 220° 220° 11 kt METAR EHLE 231025Z AUTO 22011KT 9999 SCT018 BKN023 BKN027 17/13 Q1013 NOSIG
11:55
M
16 °C 10 km+ 1.900 ft 200° 200° 12 kt METAR EHLE 230955Z AUTO 20012KT 9999 FEW016 BKN019 OVC023 16/12 Q1013 NOSIG
11:25
M
16 °C 10 km+ 1.700 ft 200° 200° 9 kt METAR EHLE 230925Z AUTO 20009KT 170V230 9999 SCT014 BKN017 BKN021 16/13 Q1013 NOSIG
10:55
M
16 °C 10 km+ 1.800 ft 200° 200° 10 kt METAR EHLE 230855Z AUTO 20010KT 170V230 9999 FEW012 SCT015 BKN018 16/12 Q1013 NOSIG
10:25
M
15 °C 10 km+ 1.700 ft 210° 210° 10 kt METAR EHLE 230825Z AUTO 21010KT 180V240 9999 FEW012 SCT014 BKN017 15/12 Q1013 NOSIG
09:55
M
15 °C 10 km+ 1.500 ft 200° 200° 9 kt METAR EHLE 230755Z AUTO 20009KT 170V230 9999 FEW012 BKN015 OVC018 15/12 Q1013 NOSIG
09:25
M
15 °C 10 km+ 2.700 ft 200° 200° 10 kt METAR EHLE 230725Z AUTO 20010KT 160V230 9999 FEW016 SCT019 BKN027 15/12 Q1013 NOSIG
08:55
V
14 °C 10 km+ 3.200 ft 190° 190° 9 kt METAR EHLE 230655Z AUTO 19009KT 160V230 9999 SCT017 OVC032 14/12 Q1012 NOSIG
08:25
V
14 °C 10 km+ 3.600 ft 190° 190° 10 kt METAR EHLE 230625Z AUTO 19010KT 160V230 9999 SCT029 OVC036 14/12 Q1012 NOSIG
07:55
V
14 °C 10 km+ 3.300 ft 190° 190° 8 kt METAR EHLE 230555Z AUTO 19008KT 160V220 9999 BKN033 OVC037 14/12 Q1012 NOSIG
07:25
V
14 °C 10 km+ 3.100 ft 180° 180° 7 kt METAR EHLE 230525Z AUTO 18007KT 9999 OVC031 14/11 Q1012 NOSIG
06:55
M
13 °C 10 km+ 2.100 ft 180° 180° 7 kt METAR EHLE 230455Z AUTO 18007KT 9999 FEW017 BKN021 OVC025 13/11 Q1012 NOSIG
06:25
M
13 °C 10 km+ 1.700 ft 190° 190° 6 kt METAR EHLE 230425Z AUTO 19006KT 9999 BKN017 OVC020 13/11 Q1012
05:55
M
13 °C 10 km+ 1.500 ft 190° 190° 6 kt METAR EHLE 230355Z AUTO 19006KT 9999 BKN015 OVC018 13/11 Q1011
05:25
M
13 °C 10 km+ 1.700 ft 200° 200° 6 kt METAR EHLE 230325Z AUTO 20006KT 9999 OVC017 13/11 Q1011
04:55
M
13 °C 10 km+ 1.400 ft 220° 220° 7 kt METAR EHLE 230255Z AUTO 22007KT 190V250 9999 OVC014 13/11 Q1011
04:25
M
13 °C 10 km+ 1.500 ft 210° 210° 6 kt METAR EHLE 230225Z AUTO 21006KT 170V240 9999 OVC015/// 13/10 Q1011
03:55
V
12 °C 10 km+ - 200° 200° 6 kt METAR EHLE 230155Z AUTO 20006KT 9999 NCD 12/10 Q1011
03:25
V
13 °C 10 km+ - 200° 200° 6 kt METAR EHLE 230125Z AUTO 20006KT 9999 NCD 13/10 Q1011
02:55
V
13 °C 10 km+ - 200° 200° 7 kt METAR EHLE 230055Z AUTO 20007KT 170V230 9999 NCD 13/11 Q1011
02:25
V
13 °C 10 km+ - 190° 190° 7 kt METAR EHLE 230025Z AUTO 19007KT 9999 NCD 13/11 Q1011
01:55
V
13 °C 10 km+ - 200° 200° 7 kt METAR EHLE 222355Z AUTO 20007KT 9999 NCD 13/11 Q1011
01:25
V
14 °C 10 km+ - 200° 200° 7 kt METAR EHLE 222325Z AUTO 20007KT 9999 NCD 14/11 Q1011
00:55
V
14 °C 10 km+ - 200° 200° 6 kt METAR EHLE 222255Z AUTO 20006KT 9999 FEW038 14/11 Q1011
00:25
V
14 °C 10 km+ - 200° 200° 6 kt METAR EHLE 222225Z AUTO 20006KT 9999 FEW032 14/11 Q1011

2024年5月22日

时间 代码 天气 温度 能见度 天花板 METAR/SPECI
23:55
V
14 °C 10 km+ - 200° 200° 6 kt METAR EHLE 222155Z AUTO 20006KT 9999 NSC 14/11 Q1011
23:25
V
16 °C 10 km+ - 210° 210° 7 kt METAR EHLE 222125Z AUTO 21007KT 9999 FEW041 SCT047 16/11 Q1010
22:55
V
15 °C 10 km+ 3.400 ft 180° 180° 7 kt METAR EHLE 222055Z AUTO 18007KT 9999 BKN034 BKN038 15/12 Q1010
22:25
V
15 °C 10 km+ - 190° 190° 6 kt METAR EHLE 222025Z AUTO 19006KT 9999 NSC 15/12 Q1010
21:55
V
15 °C 10 km+ - 210° 210° 5 kt METAR EHLE 221955Z AUTO 21005KT 9999 NSC 15/12 Q1010
21:25
V
17 °C 10 km+ - 230° 230° 9 kt METAR EHLE 221925Z AUTO 23009KT 190V250 9999 NSC 17/11 Q1010 NOSIG
20:55
V
17 °C 10 km+ - 230° 230° 9 kt METAR EHLE 221855Z AUTO 23009KT 9999 NSC 17/12 Q1009 NOSIG
20:25
V
18 °C 10 km+ 4.500 ft 240° 240° 10 kt METAR EHLE 221825Z AUTO 24010KT 9999 BKN045 OVC049 18/12 Q1009 NOSIG
19:55
V
18 °C 10 km+ 3.200 ft 220° 220° 8 kt METAR EHLE 221755Z AUTO 22008KT 190V250 9999 BKN032 BKN037 OVC042 18/13 Q1009 NOSIG
19:25
V
18 °C 10 km+ - 200° 200° 8 kt METAR EHLE 221725Z AUTO 20008KT 160V240 9999 FEW040/// 18/12 Q1008 NOSIG
18:55
V
18 °C 10 km+ - 200° 200° 8 kt METAR EHLE 221655Z AUTO 20008KT 170V230 9999 NSC 18/13 Q1008 NOSIG
18:25
V
18 °C 10 km+ - 220° 220° 6 kt METAR EHLE 221625Z AUTO 22006KT 180V240 9999 FEW030/// 18/13 Q1008 NOSIG
17:55
V
18 °C 10 km+ 3.800 ft 210° 210° 7 kt METAR EHLE 221555Z AUTO 21007KT 190V250 9999 SCT033 BKN038 BKN043 18/13 Q1008 NOSIG
17:25
M
17 °C 10 km+ 2.900 ft 200° 200° 6 kt METAR EHLE 221525Z AUTO 20006KT 170V240 9999 SCT026/// OVC029/// 17/12 Q1008 NOSIG
16:55
V
19 °C 10 km+ - 200° 200° 9 kt METAR EHLE 221455Z AUTO 20009KT 160V230 9999 NSC 19/13 Q1008 NOSIG
16:25
V
17 °C 10 km+ 4.700 ft 200° 200° 9 kt METAR EHLE 221425Z AUTO 20009KT 170V230 9999 FEW024 BKN047 17/12 Q1008 NOSIG
15:55
V
18 °C 10 km+ - 200° 200° 9 kt METAR EHLE 221355Z AUTO 20009KT 160V240 9999 FEW022 18/13 Q1008 NOSIG
15:25
V
17 °C 10 km+ 3.600 ft 210° 210° 12 kt METAR EHLE 221325Z AUTO 21012KT 9999 SCT022 SCT026 BKN036 17/12 Q1008 NOSIG
14:55
M
17 °C 10 km+ 2.900 ft 200° 200° 9 kt METAR EHLE 221255Z AUTO 20009KT 160V240 9999 SCT020/// BKN029/// BKN038/// 17/12 Q1008 NOSIG
14:25
V
17 °C 10 km+ 3.900 ft 200° 200° 11 kt METAR EHLE 221225Z AUTO 20011KT 170V230 9999 FEW019/// BKN039/// OVC046/// 17/13 Q1008 NOSIG
13:55
M
16 °C 10 km+ 1.600 ft 200° 200° 10 kt METAR EHLE 221155Z AUTO 20010KT 170V230 9999 BKN016 OVC028 16/13 Q1008 NOSIG
13:25
M
16 °C 10 km+ 1.900 ft 200° 200° 10 kt METAR EHLE 221125Z AUTO 20010KT 160V230 9999 SCT016/// BKN019/// OVC023/// 16/13 Q1007 NOSIG
12:55
M
16 °C 10 km+ 2.400 ft 200° 200° 11 kt METAR EHLE 221055Z AUTO 20011KT 170V240 9999 SCT016/// BKN024/// OVC027/// 16/13 Q1007 NOSIG
12:25
M
16 °C 10 km+ 2.200 ft 200° 200° 12 kt METAR EHLE 221025Z AUTO 20012KT 9999 SCT016/// BKN022/// BKN027/// 16/13 Q1007 NOSIG
11:55
M
16 °C 10 km+ 2.000 ft 190° 190° 9 kt METAR EHLE 220955Z AUTO 19009KT 9999 FEW016/// BKN020/// OVC025/// 16/13 Q1006 NOSIG
11:25
M
16 °C 10 km+ 2.200 ft 200° 200° 13 kt METAR EHLE 220925Z AUTO 20013KT 170V230 9999 FEW015/// BKN022/// OVC028/// 16/13 Q1006 NOSIG
10:55
V
16 °C 10 km+ 3.100 ft 200° 200° 11 kt METAR EHLE 220855Z AUTO 20011KT 170V240 9999 FEW013/// SCT017/// OVC031/// 16/13 Q1006 NOSIG
10:25
M
15 °C 10 km+ 2.400 ft 200° 200° 10 kt METAR EHLE 220825Z AUTO 20010KT 170V240 9999 FEW011/// SCT014/// BKN024/// 15/13 Q1006 NOSIG
09:55
M
15 °C 9 km 1.400 ft 200° 200° 10 kt METAR EHLE 220755Z AUTO 20010KT 170V230 9000 FEW009 SCT011 BKN014 15/13 Q1005 BECMG BKN015
09:25
M
15 °C 10 km+ 1.400 ft 220° 220° 10 kt METAR EHLE 220725Z AUTO 22010KT 190V250 9999 FEW012/// BKN014/// OVC016/// 15/13 Q1005 BECMG BKN015
08:55
M
16 °C 10 km+ 1.300 ft 220° 220° 11 kt METAR EHLE 220655Z AUTO 22011KT 190V250 9999 FEW009/// SCT011/// BKN013/// 16/14 Q1005 NOSIG
08:25
M
15 °C 10 km+ 1.000 ft 200° 200° 7 kt METAR EHLE 220625Z AUTO 20007KT 170V240 9999 FEW008/// BKN010/// BKN013/// 15/14 Q1004 TEMPO BKN008
07:55
M
15 °C 10 km+ 2.600 ft 210° 210° 10 kt METAR EHLE 220555Z AUTO 21010KT 180V240 9999 FEW009/// OVC026/// 15/14 Q1004 TEMPO BKN008
报告变更